sensor_id;sensor_type;location;lat;lon;timestamp;P1;durP1;ratioP1;P2;durP2;ratioP2
20814;SDS011;10568;48.176;16.316;2024-02-23T00:01:03;5.60;;;3.13;;
20814;SDS011;10568;48.176;16.316;2024-02-23T00:03:31;5.27;;;3.40;;
20814;SDS011;10568;48.176;16.316;2024-02-23T00:05:58;4.90;;;3.03;;
20814;SDS011;10568;48.176;16.316;2024-02-23T00:08:26;5.73;;;4.33;;
20814;SDS011;10568;48.176;16.316;2024-02-23T00:10:54;6.03;;;3.87;;
20814;SDS011;10568;48.176;16.316;2024-02-23T00:13:21;8.80;;;4.67;;
20814;SDS011;10568;48.176;16.316;2024-02-23T00:15:49;6.77;;;4.07;;
20814;SDS011;10568;48.176;16.316;2024-02-23T00:18:16;9.63;;;5.00;;
20814;SDS011;10568;48.176;16.316;2024-02-23T00:20:44;9.90;;;5.23;;
20814;SDS011;10568;48.176;16.316;2024-02-23T00:23:12;8.97;;;5.20;;
20814;SDS011;10568;48.176;16.316;2024-02-23T00:25:39;7.50;;;5.13;;
20814;SDS011;10568;48.176;16.316;2024-02-23T00:28:07;7.73;;;5.37;;
20814;SDS011;10568;48.176;16.316;2024-02-23T00:30:34;8.30;;;5.73;;
20814;SDS011;10568;48.176;16.316;2024-02-23T00:33:02;7.10;;;5.47;;
20814;SDS011;10568;48.176;16.316;2024-02-23T00:35:30;8.10;;;5.50;;
20814;SDS011;10568;48.176;16.316;2024-02-23T00:37:57;8.77;;;5.07;;
20814;SDS011;10568;48.176;16.316;2024-02-23T00:40:25;8.20;;;4.90;;
20814;SDS011;10568;48.176;16.316;2024-02-23T00:42:52;8.13;;;5.27;;
20814;SDS011;10568;48.176;16.316;2024-02-23T00:45:20;8.53;;;4.87;;
20814;SDS011;10568;48.176;16.316;2024-02-23T00:47:48;8.23;;;5.03;;
20814;SDS011;10568;48.176;16.316;2024-02-23T00:50:15;9.23;;;4.70;;
20814;SDS011;10568;48.176;16.316;2024-02-23T00:52:43;7.57;;;5.20;;
20814;SDS011;10568;48.176;16.316;2024-02-23T00:55:10;7.57;;;5.43;;
20814;SDS011;10568;48.176;16.316;2024-02-23T00:57:38;7.07;;;4.83;;
20814;SDS011;10568;48.176;16.316;2024-02-23T01:00:05;7.47;;;5.13;;
20814;SDS011;10568;48.176;16.316;2024-02-23T01:02:33;9.37;;;5.90;;
20814;SDS011;10568;48.176;16.316;2024-02-23T01:05:01;6.93;;;4.80;;
20814;SDS011;10568;48.176;16.316;2024-02-23T01:07:29;7.03;;;5.07;;
20814;SDS011;10568;48.176;16.316;2024-02-23T01:09:59;6.97;;;4.77;;
20814;SDS011;10568;48.176;16.316;2024-02-23T01:12:26;7.63;;;4.87;;
20814;SDS011;10568;48.176;16.316;2024-02-23T01:14:54;8.50;;;5.30;;
20814;SDS011;10568;48.176;16.316;2024-02-23T01:17:21;5.80;;;3.80;;
20814;SDS011;10568;48.176;16.316;2024-02-23T01:19:49;6.40;;;4.40;;
20814;SDS011;10568;48.176;16.316;2024-02-23T01:22:17;9.33;;;5.50;;
20814;SDS011;10568;48.176;16.316;2024-02-23T01:24:45;8.10;;;4.63;;
20814;SDS011;10568;48.176;16.316;2024-02-23T01:27:12;7.47;;;5.30;;
20814;SDS011;10568;48.176;16.316;2024-02-23T01:29:40;7.17;;;4.70;;
20814;SDS011;10568;48.176;16.316;2024-02-23T01:32:07;6.57;;;4.80;;
20814;SDS011;10568;48.176;16.316;2024-02-23T01:34:35;6.50;;;4.60;;
20814;SDS011;10568;48.176;16.316;2024-02-23T01:37:02;7.40;;;4.23;;
20814;SDS011;10568;48.176;16.316;2024-02-23T01:39:29;7.77;;;4.70;;
20814;SDS011;10568;48.176;16.316;2024-02-23T01:41:57;7.87;;;4.27;;
20814;SDS011;10568;48.176;16.316;2024-02-23T01:44:25;7.63;;;4.97;;
20814;SDS011;10568;48.176;16.316;2024-02-23T01:46:52;9.43;;;5.20;;
20814;SDS011;10568;48.176;16.316;2024-02-23T01:49:20;5.23;;;4.37;;
20814;SDS011;10568;48.176;16.316;2024-02-23T01:51:48;7.10;;;4.30;;
20814;SDS011;10568;48.176;16.316;2024-02-23T01:54:16;6.90;;;4.63;;
20814;SDS011;10568;48.176;16.316;2024-02-23T01:56:43;9.23;;;5.10;;
20814;SDS011;10568;48.176;16.316;2024-02-23T01:59:11;6.50;;;4.77;;
20814;SDS011;10568;48.176;16.316;2024-02-23T02:01:40;6.73;;;4.77;;
20814;SDS011;10568;48.176;16.316;2024-02-23T02:04:10;6.57;;;4.60;;
20814;SDS011;10568;48.176;16.316;2024-02-23T02:06:37;6.53;;;4.63;;
20814;SDS011;10568;48.176;16.316;2024-02-23T02:09:05;8.50;;;4.83;;
20814;SDS011;10568;48.176;16.316;2024-02-23T02:11:33;7.63;;;5.00;;
20814;SDS011;10568;48.176;16.316;2024-02-23T02:14:03;6.70;;;4.47;;
20814;SDS011;10568;48.176;16.316;2024-02-23T02:16:30;7.37;;;4.37;;
20814;SDS011;10568;48.176;16.316;2024-02-23T02:18:58;7.30;;;4.70;;
20814;SDS011;10568;48.176;16.316;2024-02-23T02:21:25;6.30;;;4.57;;
20814;SDS011;10568;48.176;16.316;2024-02-23T02:23:54;6.63;;;4.70;;
20814;SDS011;10568;48.176;16.316;2024-02-23T02:26:23;6.10;;;4.30;;
20814;SDS011;10568;48.176;16.316;2024-02-23T02:28:50;7.93;;;4.43;;
20814;SDS011;10568;48.176;16.316;2024-02-23T02:31:20;6.57;;;4.40;;
20814;SDS011;10568;48.176;16.316;2024-02-23T02:33:47;7.17;;;4.50;;
20814;SDS011;10568;48.176;16.316;2024-02-23T02:36:15;5.67;;;4.10;;
20814;SDS011;10568;48.176;16.316;2024-02-23T02:38:42;5.90;;;4.40;;
20814;SDS011;10568;48.176;16.316;2024-02-23T02:41:10;6.17;;;4.40;;
20814;SDS011;10568;48.176;16.316;2024-02-23T02:43:38;6.00;;;4.30;;
20814;SDS011;10568;48.176;16.316;2024-02-23T02:46:05;6.50;;;4.63;;
20814;SDS011;10568;48.176;16.316;2024-02-23T02:48:33;6.50;;;4.13;;
20814;SDS011;10568;48.176;16.316;2024-02-23T02:51:00;4.53;;;3.53;;
20814;SDS011;10568;48.176;16.316;2024-02-23T02:53:28;5.73;;;4.20;;
20814;SDS011;10568;48.176;16.316;2024-02-23T02:55:55;7.50;;;4.50;;
20814;SDS011;10568;48.176;16.316;2024-02-23T02:58:23;6.97;;;4.70;;
20814;SDS011;10568;48.176;16.316;2024-02-23T03:00:50;6.40;;;4.73;;
20814;SDS011;10568;48.176;16.316;2024-02-23T03:03:18;6.60;;;4.40;;
20814;SDS011;10568;48.176;16.316;2024-02-23T03:05:45;6.13;;;3.93;;
20814;SDS011;10568;48.176;16.316;2024-02-23T03:08:13;8.63;;;4.47;;
20814;SDS011;10568;48.176;16.316;2024-02-23T03:10:41;13.17;;;4.53;;
20814;SDS011;10568;48.176;16.316;2024-02-23T03:13:08;7.27;;;4.90;;
20814;SDS011;10568;48.176;16.316;2024-02-23T03:15:35;8.40;;;4.77;;
20814;SDS011;10568;48.176;16.316;2024-02-23T03:18:02;6.23;;;4.50;;
20814;SDS011;10568;48.176;16.316;2024-02-23T03:20:30;6.90;;;4.47;;
20814;SDS011;10568;48.176;16.316;2024-02-23T03:22:58;7.63;;;4.90;;
20814;SDS011;10568;48.176;16.316;2024-02-23T03:25:25;5.60;;;4.17;;
20814;SDS011;10568;48.176;16.316;2024-02-23T03:27:53;5.93;;;3.90;;
20814;SDS011;10568;48.176;16.316;2024-02-23T03:30:20;4.93;;;3.97;;
20814;SDS011;10568;48.176;16.316;2024-02-23T03:32:47;7.07;;;4.43;;
20814;SDS011;10568;48.176;16.316;2024-02-23T03:35:15;5.77;;;4.10;;
20814;SDS011;10568;48.176;16.316;2024-02-23T03:37:43;6.23;;;4.40;;
20814;SDS011;10568;48.176;16.316;2024-02-23T03:40:10;5.30;;;4.20;;
20814;SDS011;10568;48.176;16.316;2024-02-23T03:42:39;4.97;;;3.93;;
20814;SDS011;10568;48.176;16.316;2024-02-23T03:45:06;7.27;;;4.40;;
20814;SDS011;10568;48.176;16.316;2024-02-23T03:47:34;5.37;;;4.07;;
20814;SDS011;10568;48.176;16.316;2024-02-23T03:50:02;5.07;;;3.60;;
20814;SDS011;10568;48.176;16.316;2024-02-23T03:52:29;6.60;;;4.40;;
20814;SDS011;10568;48.176;16.316;2024-02-23T03:54:57;5.87;;;3.90;;
20814;SDS011;10568;48.176;16.316;2024-02-23T03:57:24;5.33;;;3.90;;
20814;SDS011;10568;48.176;16.316;2024-02-23T03:59:52;5.07;;;3.90;;
20814;SDS011;10568;48.176;16.316;2024-02-23T04:02:20;6.50;;;4.03;;
20814;SDS011;10568;48.176;16.316;2024-02-23T04:04:48;4.37;;;3.70;;
20814;SDS011;10568;48.176;16.316;2024-02-23T04:07:16;6.10;;;3.90;;
20814;SDS011;10568;48.176;16.316;2024-02-23T04:09:49;6.23;;;4.50;;
20814;SDS011;10568;48.176;16.316;2024-02-23T04:12:19;6.93;;;4.40;;
20814;SDS011;10568;48.176;16.316;2024-02-23T04:14:47;9.33;;;6.33;;
20814;SDS011;10568;48.176;16.316;2024-02-23T04:17:14;7.90;;;5.23;;
20814;SDS011;10568;48.176;16.316;2024-02-23T04:19:43;6.77;;;4.90;;
20814;SDS011;10568;48.176;16.316;2024-02-23T04:22:11;8.30;;;4.87;;
20814;SDS011;10568;48.176;16.316;2024-02-23T04:24:39;7.23;;;5.53;;
20814;SDS011;10568;48.176;16.316;2024-02-23T04:27:06;7.13;;;4.87;;
20814;SDS011;10568;48.176;16.316;2024-02-23T04:29:34;7.20;;;4.07;;
20814;SDS011;10568;48.176;16.316;2024-02-23T04:32:02;5.30;;;3.73;;
20814;SDS011;10568;48.176;16.316;2024-02-23T04:34:29;4.67;;;3.10;;
20814;SDS011;10568;48.176;16.316;2024-02-23T04:36:57;3.20;;;2.27;;
20814;SDS011;10568;48.176;16.316;2024-02-23T04:39:24;3.17;;;2.23;;
20814;SDS011;10568;48.176;16.316;2024-02-23T04:41:52;3.30;;;1.97;;
20814;SDS011;10568;48.176;16.316;2024-02-23T04:44:20;1.63;;;1.37;;
20814;SDS011;10568;48.176;16.316;2024-02-23T04:46:47;2.63;;;1.60;;
20814;SDS011;10568;48.176;16.316;2024-02-23T04:49:15;1.70;;;1.23;;
20814;SDS011;10568;48.176;16.316;2024-02-23T04:51:42;1.63;;;1.17;;
20814;SDS011;10568;48.176;16.316;2024-02-23T04:54:10;0.90;;;0.77;;
20814;SDS011;10568;48.176;16.316;2024-02-23T04:56:38;1.30;;;0.87;;
20814;SDS011;10568;48.176;16.316;2024-02-23T04:59:05;2.20;;;0.93;;
20814;SDS011;10568;48.176;16.316;2024-02-23T05:01:36;0.70;;;0.70;;
20814;SDS011;10568;48.176;16.316;2024-02-23T05:04:04;0.60;;;0.60;;
20814;SDS011;10568;48.176;16.316;2024-02-23T05:06:32;0.73;;;0.73;;
20814;SDS011;10568;48.176;16.316;2024-02-23T05:08:59;1.17;;;0.80;;
20814;SDS011;10568;48.176;16.316;2024-02-23T05:11:27;2.73;;;0.77;;
20814;SDS011;10568;48.176;16.316;2024-02-23T05:13:55;1.20;;;0.80;;
20814;SDS011;10568;48.176;16.316;2024-02-23T05:16:22;0.60;;;0.60;;
20814;SDS011;10568;48.176;16.316;2024-02-23T05:18:50;1.40;;;0.60;;
20814;SDS011;10568;48.176;16.316;2024-02-23T05:21:17;1.23;;;0.73;;
20814;SDS011;10568;48.176;16.316;2024-02-23T05:23:45;0.67;;;0.60;;
20814;SDS011;10568;48.176;16.316;2024-02-23T05:26:16;1.30;;;0.83;;
20814;SDS011;10568;48.176;16.316;2024-02-23T05:28:43;0.50;;;0.50;;
20814;SDS011;10568;48.176;16.316;2024-02-23T05:31:11;0.40;;;0.40;;
20814;SDS011;10568;48.176;16.316;2024-02-23T05:33:38;0.50;;;0.50;;
20814;SDS011;10568;48.176;16.316;2024-02-23T05:36:06;0.47;;;0.47;;
20814;SDS011;10568;48.176;16.316;2024-02-23T05:38:34;0.50;;;0.30;;
20814;SDS011;10568;48.176;16.316;2024-02-23T05:41:01;0.90;;;0.50;;
20814;SDS011;10568;48.176;16.316;2024-02-23T05:43:29;0.90;;;0.47;;
20814;SDS011;10568;48.176;16.316;2024-02-23T05:45:56;0.50;;;0.50;;
20814;SDS011;10568;48.176;16.316;2024-02-23T05:48:25;1.60;;;0.60;;
20814;SDS011;10568;48.176;16.316;2024-02-23T05:50:53;0.43;;;0.43;;
20814;SDS011;10568;48.176;16.316;2024-02-23T05:53:20;0.40;;;0.40;;
20814;SDS011;10568;48.176;16.316;2024-02-23T05:55:48;0.40;;;0.40;;
20814;SDS011;10568;48.176;16.316;2024-02-23T05:58:15;2.87;;;0.50;;
20814;SDS011;10568;48.176;16.316;2024-02-23T06:00:44;0.40;;;0.40;;
20814;SDS011;10568;48.176;16.316;2024-02-23T06:03:11;1.23;;;0.30;;
20814;SDS011;10568;48.176;16.316;2024-02-23T06:05:39;0.30;;;0.30;;
20814;SDS011;10568;48.176;16.316;2024-02-23T06:08:07;1.03;;;0.43;;
20814;SDS011;10568;48.176;16.316;2024-02-23T06:10:35;0.43;;;0.30;;
20814;SDS011;10568;48.176;16.316;2024-02-23T06:13:04;1.17;;;0.30;;
20814;SDS011;10568;48.176;16.316;2024-02-23T06:15:31;0.40;;;0.30;;
20814;SDS011;10568;48.176;16.316;2024-02-23T06:17:59;0.40;;;0.40;;
20814;SDS011;10568;48.176;16.316;2024-02-23T06:20:26;0.30;;;0.30;;
20814;SDS011;10568;48.176;16.316;2024-02-23T06:22:54;0.30;;;0.30;;
20814;SDS011;10568;48.176;16.316;2024-02-23T06:25:22;0.43;;;0.30;;
20814;SDS011;10568;48.176;16.316;2024-02-23T06:27:49;0.27;;;0.20;;
20814;SDS011;10568;48.176;16.316;2024-02-23T06:30:17;0.30;;;0.30;;
20814;SDS011;10568;48.176;16.316;2024-02-23T06:32:44;0.37;;;0.20;;
20814;SDS011;10568;48.176;16.316;2024-02-23T06:35:12;0.30;;;0.30;;
20814;SDS011;10568;48.176;16.316;2024-02-23T06:37:41;0.40;;;0.30;;
20814;SDS011;10568;48.176;16.316;2024-02-23T06:40:08;0.30;;;0.30;;
20814;SDS011;10568;48.176;16.316;2024-02-23T06:42:36;0.10;;;0.10;;
20814;SDS011;10568;48.176;16.316;2024-02-23T06:45:03;2.20;;;0.30;;
20814;SDS011;10568;48.176;16.316;2024-02-23T06:47:31;0.83;;;0.20;;
20814;SDS011;10568;48.176;16.316;2024-02-23T06:49:59;1.03;;;0.37;;
20814;SDS011;10568;48.176;16.316;2024-02-23T06:52:26;0.30;;;0.30;;
20814;SDS011;10568;48.176;16.316;2024-02-23T06:54:55;0.50;;;0.40;;
20814;SDS011;10568;48.176;16.316;2024-02-23T06:57:22;0.33;;;0.30;;
20814;SDS011;10568;48.176;16.316;2024-02-23T06:59:52;0.37;;;0.30;;
20814;SDS011;10568;48.176;16.316;2024-02-23T07:02:19;0.30;;;0.30;;
20814;SDS011;10568;48.176;16.316;2024-02-23T07:04:47;0.67;;;0.40;;
20814;SDS011;10568;48.176;16.316;2024-02-23T07:07:15;0.20;;;0.20;;
20814;SDS011;10568;48.176;16.316;2024-02-23T07:09:42;1.70;;;0.20;;
20814;SDS011;10568;48.176;16.316;2024-02-23T07:12:10;0.20;;;0.20;;
20814;SDS011;10568;48.176;16.316;2024-02-23T07:14:40;0.20;;;0.20;;
20814;SDS011;10568;48.176;16.316;2024-02-23T07:17:08;1.17;;;0.20;;
20814;SDS011;10568;48.176;16.316;2024-02-23T07:19:35;0.40;;;0.40;;
20814;SDS011;10568;48.176;16.316;2024-02-23T07:22:03;0.30;;;0.27;;
20814;SDS011;10568;48.176;16.316;2024-02-23T07:24:30;0.40;;;0.40;;
20814;SDS011;10568;48.176;16.316;2024-02-23T07:26:58;1.73;;;0.43;;
20814;SDS011;10568;48.176;16.316;2024-02-23T07:29:26;0.33;;;0.30;;
20814;SDS011;10568;48.176;16.316;2024-02-23T07:31:53;0.33;;;0.27;;
20814;SDS011;10568;48.176;16.316;2024-02-23T07:34:21;0.30;;;0.30;;
20814;SDS011;10568;48.176;16.316;2024-02-23T07:36:52;0.43;;;0.33;;
20814;SDS011;10568;48.176;16.316;2024-02-23T07:39:20;1.87;;;0.90;;
20814;SDS011;10568;48.176;16.316;2024-02-23T07:41:48;0.70;;;0.70;;
20814;SDS011;10568;48.176;16.316;2024-02-23T07:44:16;1.10;;;0.50;;
20814;SDS011;10568;48.176;16.316;2024-02-23T07:46:43;1.17;;;0.70;;
20814;SDS011;10568;48.176;16.316;2024-02-23T07:49:11;1.20;;;0.80;;
20814;SDS011;10568;48.176;16.316;2024-02-23T07:51:38;1.40;;;0.77;;
20814;SDS011;10568;48.176;16.316;2024-02-23T07:54:06;1.83;;;0.70;;
20814;SDS011;10568;48.176;16.316;2024-02-23T07:56:33;1.10;;;0.70;;
20814;SDS011;10568;48.176;16.316;2024-02-23T07:59:01;1.00;;;0.60;;
20814;SDS011;10568;48.176;16.316;2024-02-23T08:01:30;2.57;;;0.77;;
20814;SDS011;10568;48.176;16.316;2024-02-23T08:03:57;1.03;;;0.70;;
20814;SDS011;10568;48.176;16.316;2024-02-23T08:06:24;1.30;;;0.63;;
20814;SDS011;10568;48.176;16.316;2024-02-23T08:08:52;1.30;;;0.90;;
20814;SDS011;10568;48.176;16.316;2024-02-23T08:11:21;1.37;;;0.90;;
20814;SDS011;10568;48.176;16.316;2024-02-23T08:13:49;1.60;;;1.00;;
20814;SDS011;10568;48.176;16.316;2024-02-23T08:16:16;2.47;;;0.80;;
20814;SDS011;10568;48.176;16.316;2024-02-23T08:18:44;2.40;;;1.00;;
20814;SDS011;10568;48.176;16.316;2024-02-23T08:21:11;1.13;;;0.80;;
20814;SDS011;10568;48.176;16.316;2024-02-23T08:23:39;3.40;;;0.70;;
20814;SDS011;10568;48.176;16.316;2024-02-23T08:26:06;0.80;;;0.60;;
20814;SDS011;10568;48.176;16.316;2024-02-23T08:28:35;1.07;;;0.70;;
20814;SDS011;10568;48.176;16.316;2024-02-23T08:31:02;1.10;;;0.80;;
20814;SDS011;10568;48.176;16.316;2024-02-23T08:33:30;1.07;;;0.90;;
20814;SDS011;10568;48.176;16.316;2024-02-23T08:35:58;1.10;;;0.70;;
20814;SDS011;10568;48.176;16.316;2024-02-23T08:38:25;2.67;;;0.70;;
20814;SDS011;10568;48.176;16.316;2024-02-23T08:40:53;0.93;;;0.67;;
20814;SDS011;10568;48.176;16.316;2024-02-23T08:43:20;1.70;;;0.90;;
20814;SDS011;10568;48.176;16.316;2024-02-23T08:45:48;1.23;;;0.80;;
20814;SDS011;10568;48.176;16.316;2024-02-23T08:48:15;1.47;;;0.80;;
20814;SDS011;10568;48.176;16.316;2024-02-23T08:50:43;0.77;;;0.60;;
20814;SDS011;10568;48.176;16.316;2024-02-23T08:53:10;2.07;;;1.10;;
20814;SDS011;10568;48.176;16.316;2024-02-23T08:55:38;4.43;;;1.70;;
20814;SDS011;10568;48.176;16.316;2024-02-23T08:58:05;4.57;;;1.73;;
20814;SDS011;10568;48.176;16.316;2024-02-23T09:00:33;2.27;;;1.47;;
20814;SDS011;10568;48.176;16.316;2024-02-23T09:03:00;0.87;;;0.63;;
20814;SDS011;10568;48.176;16.316;2024-02-23T09:05:28;1.10;;;0.80;;
20814;SDS011;10568;48.176;16.316;2024-02-23T09:07:56;0.77;;;0.30;;
20814;SDS011;10568;48.176;16.316;2024-02-23T09:10:23;0.87;;;0.50;;
20814;SDS011;10568;48.176;16.316;2024-02-23T09:12:51;0.67;;;0.40;;
20814;SDS011;10568;48.176;16.316;2024-02-23T09:15:20;1.20;;;0.40;;
20814;SDS011;10568;48.176;16.316;2024-02-23T09:17:47;0.37;;;0.37;;
20814;SDS011;10568;48.176;16.316;2024-02-23T09:20:15;0.57;;;0.40;;
20814;SDS011;10568;48.176;16.316;2024-02-23T09:22:42;0.73;;;0.30;;
20814;SDS011;10568;48.176;16.316;2024-02-23T09:25:10;0.53;;;0.40;;
20814;SDS011;10568;48.176;16.316;2024-02-23T09:27:38;0.40;;;0.40;;
20814;SDS011;10568;48.176;16.316;2024-02-23T09:30:11;0.53;;;0.50;;
20814;SDS011;10568;48.176;16.316;2024-02-23T09:32:39;0.83;;;0.40;;
20814;SDS011;10568;48.176;16.316;2024-02-23T09:35:07;2.47;;;0.40;;
20814;SDS011;10568;48.176;16.316;2024-02-23T09:37:34;1.43;;;0.40;;
20814;SDS011;10568;48.176;16.316;2024-02-23T09:40:02;0.60;;;0.40;;
20814;SDS011;10568;48.176;16.316;2024-02-23T09:42:30;0.40;;;0.30;;
20814;SDS011;10568;48.176;16.316;2024-02-23T09:44:59;1.20;;;0.50;;
20814;SDS011;10568;48.176;16.316;2024-02-23T09:47:27;0.50;;;0.50;;
20814;SDS011;10568;48.176;16.316;2024-02-23T09:49:55;2.77;;;0.50;;
20814;SDS011;10568;48.176;16.316;2024-02-23T09:52:23;0.20;;;0.20;;
20814;SDS011;10568;48.176;16.316;2024-02-23T09:54:50;2.00;;;0.30;;
20814;SDS011;10568;48.176;16.316;2024-02-23T09:57:18;0.97;;;0.40;;
20814;SDS011;10568;48.176;16.316;2024-02-23T09:59:48;0.40;;;0.40;;
20814;SDS011;10568;48.176;16.316;2024-02-23T10:02:16;0.30;;;0.30;;
20814;SDS011;10568;48.176;16.316;2024-02-23T10:04:55;0.70;;;0.40;;
20814;SDS011;10568;48.176;16.316;2024-02-23T10:07:23;1.20;;;0.50;;
20814;SDS011;10568;48.176;16.316;2024-02-23T10:09:52;0.30;;;0.30;;
20814;SDS011;10568;48.176;16.316;2024-02-23T10:12:22;0.30;;;0.30;;
20814;SDS011;10568;48.176;16.316;2024-02-23T10:14:49;0.40;;;0.30;;
20814;SDS011;10568;48.176;16.316;2024-02-23T10:17:17;0.60;;;0.50;;
20814;SDS011;10568;48.176;16.316;2024-02-23T10:19:44;0.57;;;0.43;;
20814;SDS011;10568;48.176;16.316;2024-02-23T10:22:12;1.27;;;0.50;;
20814;SDS011;10568;48.176;16.316;2024-02-23T10:24:39;0.60;;;0.50;;
20814;SDS011;10568;48.176;16.316;2024-02-23T10:27:10;0.80;;;0.50;;
20814;SDS011;10568;48.176;16.316;2024-02-23T10:29:37;0.43;;;0.43;;
20814;SDS011;10568;48.176;16.316;2024-02-23T10:32:05;1.30;;;0.70;;
20814;SDS011;10568;48.176;16.316;2024-02-23T10:34:33;0.50;;;0.40;;
20814;SDS011;10568;48.176;16.316;2024-02-23T10:37:04;0.40;;;0.40;;
20814;SDS011;10568;48.176;16.316;2024-02-23T10:39:33;0.40;;;0.40;;
20814;SDS011;10568;48.176;16.316;2024-02-23T10:42:04;0.30;;;0.30;;
20814;SDS011;10568;48.176;16.316;2024-02-23T10:44:32;1.17;;;0.40;;
20814;SDS011;10568;48.176;16.316;2024-02-23T10:46:59;0.33;;;0.33;;
20814;SDS011;10568;48.176;16.316;2024-02-23T10:49:28;2.00;;;0.40;;
20814;SDS011;10568;48.176;16.316;2024-02-23T10:51:55;0.20;;;0.20;;
20814;SDS011;10568;48.176;16.316;2024-02-23T10:54:23;0.50;;;0.23;;
20814;SDS011;10568;48.176;16.316;2024-02-23T10:56:51;0.23;;;0.23;;
20814;SDS011;10568;48.176;16.316;2024-02-23T10:59:19;0.90;;;0.40;;
20814;SDS011;10568;48.176;16.316;2024-02-23T11:01:49;0.90;;;0.37;;
20814;SDS011;10568;48.176;16.316;2024-02-23T11:04:20;1.27;;;0.50;;
20814;SDS011;10568;48.176;16.316;2024-02-23T11:06:51;0.67;;;0.40;;
20814;SDS011;10568;48.176;16.316;2024-02-23T11:09:20;0.40;;;0.40;;
20814;SDS011;10568;48.176;16.316;2024-02-23T11:11:56;0.20;;;0.20;;
20814;SDS011;10568;48.176;16.316;2024-02-23T11:14:32;0.50;;;0.40;;
20814;SDS011;10568;48.176;16.316;2024-02-23T11:17:02;0.80;;;0.57;;
20814;SDS011;10568;48.176;16.316;2024-02-23T11:22:01;0.97;;;0.60;;
20814;SDS011;10568;48.176;16.316;2024-02-23T11:24:29;1.80;;;0.73;;
20814;SDS011;10568;48.176;16.316;2024-02-23T11:26:58;0.70;;;0.50;;
20814;SDS011;10568;48.176;16.316;2024-02-23T11:29:26;0.73;;;0.50;;
20814;SDS011;10568;48.176;16.316;2024-02-23T11:31:55;0.67;;;0.50;;
20814;SDS011;10568;48.176;16.316;2024-02-23T11:34:27;1.50;;;0.90;;
20814;SDS011;10568;48.176;16.316;2024-02-23T11:36:55;1.67;;;0.50;;
20814;SDS011;10568;48.176;16.316;2024-02-23T11:39:23;3.33;;;0.70;;
20814;SDS011;10568;48.176;16.316;2024-02-23T11:41:50;2.30;;;0.70;;
20814;SDS011;10568;48.176;16.316;2024-02-23T11:44:18;1.40;;;0.67;;
20814;SDS011;10568;48.176;16.316;2024-02-23T11:46:46;1.17;;;0.97;;
20814;SDS011;10568;48.176;16.316;2024-02-23T11:49:14;0.87;;;0.80;;
20814;SDS011;10568;48.176;16.316;2024-02-23T11:51:43;0.70;;;0.70;;
20814;SDS011;10568;48.176;16.316;2024-02-23T11:54:11;1.57;;;1.03;;
20814;SDS011;10568;48.176;16.316;2024-02-23T11:56:39;1.63;;;1.10;;
20814;SDS011;10568;48.176;16.316;2024-02-23T11:59:07;1.07;;;0.97;;
20814;SDS011;10568;48.176;16.316;2024-02-23T12:01:36;1.10;;;1.00;;
20814;SDS011;10568;48.176;16.316;2024-02-23T12:04:03;1.93;;;1.10;;
20814;SDS011;10568;48.176;16.316;2024-02-23T12:06:31;1.50;;;1.10;;
20814;SDS011;10568;48.176;16.316;2024-02-23T12:09:00;3.40;;;1.20;;
20814;SDS011;10568;48.176;16.316;2024-02-23T12:11:28;1.60;;;1.00;;
20814;SDS011;10568;48.176;16.316;2024-02-23T12:13:55;1.00;;;0.73;;
20814;SDS011;10568;48.176;16.316;2024-02-23T12:16:26;1.40;;;0.90;;
20814;SDS011;10568;48.176;16.316;2024-02-23T12:18:55;1.20;;;0.90;;
20814;SDS011;10568;48.176;16.316;2024-02-23T12:21:23;1.77;;;1.23;;
20814;SDS011;10568;48.176;16.316;2024-02-23T12:23:51;3.73;;;1.20;;
20814;SDS011;10568;48.176;16.316;2024-02-23T12:26:19;1.07;;;0.80;;
20814;SDS011;10568;48.176;16.316;2024-02-23T12:28:47;1.50;;;1.00;;
20814;SDS011;10568;48.176;16.316;2024-02-23T12:31:15;1.20;;;0.80;;
20814;SDS011;10568;48.176;16.316;2024-02-23T12:33:42;2.47;;;0.87;;
20814;SDS011;10568;48.176;16.316;2024-02-23T12:36:15;1.03;;;0.70;;
20814;SDS011;10568;48.176;16.316;2024-02-23T12:38:43;2.83;;;1.10;;
20814;SDS011;10568;48.176;16.316;2024-02-23T12:41:10;1.90;;;1.10;;
20814;SDS011;10568;48.176;16.316;2024-02-23T12:43:38;2.60;;;1.10;;
20814;SDS011;10568;48.176;16.316;2024-02-23T12:46:08;1.20;;;1.00;;
20814;SDS011;10568;48.176;16.316;2024-02-23T12:48:38;2.20;;;1.03;;
20814;SDS011;10568;48.176;16.316;2024-02-23T12:51:05;1.13;;;1.00;;
20814;SDS011;10568;48.176;16.316;2024-02-23T12:53:34;1.63;;;1.00;;
20814;SDS011;10568;48.176;16.316;2024-02-23T12:56:09;1.70;;;0.97;;
20814;SDS011;10568;48.176;16.316;2024-02-23T12:58:38;1.10;;;1.00;;
20814;SDS011;10568;48.176;16.316;2024-02-23T13:01:06;0.80;;;0.80;;
20814;SDS011;10568;48.176;16.316;2024-02-23T13:03:35;1.90;;;1.10;;
20814;SDS011;10568;48.176;16.316;2024-02-23T13:06:03;0.40;;;0.40;;
20814;SDS011;10568;48.176;16.316;2024-02-23T13:08:31;1.70;;;1.10;;
20814;SDS011;10568;48.176;16.316;2024-02-23T13:10:59;1.90;;;1.07;;
20814;SDS011;10568;48.176;16.316;2024-02-23T13:13:26;2.00;;;1.30;;
20814;SDS011;10568;48.176;16.316;2024-02-23T13:15:55;2.63;;;1.27;;
20814;SDS011;10568;48.176;16.316;2024-02-23T13:18:23;2.00;;;1.30;;
20814;SDS011;10568;48.176;16.316;2024-02-23T13:20:51;2.20;;;1.30;;
20814;SDS011;10568;48.176;16.316;2024-02-23T13:23:19;1.57;;;1.23;;
20814;SDS011;10568;48.176;16.316;2024-02-23T13:25:46;1.43;;;1.20;;
20814;SDS011;10568;48.176;16.316;2024-02-23T13:28:14;2.67;;;1.17;;
20814;SDS011;10568;48.176;16.316;2024-02-23T13:30:42;2.10;;;1.30;;
20814;SDS011;10568;48.176;16.316;2024-02-23T13:33:10;1.73;;;1.30;;
20814;SDS011;10568;48.176;16.316;2024-02-23T13:35:38;2.30;;;1.13;;
20814;SDS011;10568;48.176;16.316;2024-02-23T13:38:06;1.67;;;1.00;;
20814;SDS011;10568;48.176;16.316;2024-02-23T13:40:35;3.57;;;1.57;;
20814;SDS011;10568;48.176;16.316;2024-02-23T13:43:03;3.13;;;1.30;;
20814;SDS011;10568;48.176;16.316;2024-02-23T13:45:30;1.60;;;1.30;;
20814;SDS011;10568;48.176;16.316;2024-02-23T13:47:59;1.57;;;1.20;;
20814;SDS011;10568;48.176;16.316;2024-02-23T13:50:27;2.33;;;1.30;;
20814;SDS011;10568;48.176;16.316;2024-02-23T13:52:55;1.87;;;1.03;;
20814;SDS011;10568;48.176;16.316;2024-02-23T13:55:23;1.50;;;1.30;;
20814;SDS011;10568;48.176;16.316;2024-02-23T13:57:50;3.57;;;1.30;;
20814;SDS011;10568;48.176;16.316;2024-02-23T14:00:18;4.07;;;1.63;;
20814;SDS011;10568;48.176;16.316;2024-02-23T14:02:46;1.90;;;1.50;;
20814;SDS011;10568;48.176;16.316;2024-02-23T14:05:14;4.10;;;1.73;;
20814;SDS011;10568;48.176;16.316;2024-02-23T14:07:45;2.50;;;1.90;;
20814;SDS011;10568;48.176;16.316;2024-02-23T14:10:12;2.20;;;1.60;;
20814;SDS011;10568;48.176;16.316;2024-02-23T14:12:40;2.80;;;1.77;;
20814;SDS011;10568;48.176;16.316;2024-02-23T14:15:08;1.77;;;1.57;;
20814;SDS011;10568;48.176;16.316;2024-02-23T14:17:37;3.10;;;1.37;;
20814;SDS011;10568;48.176;16.316;2024-02-23T14:20:05;1.83;;;1.57;;
20814;SDS011;10568;48.176;16.316;2024-02-23T14:22:33;2.77;;;1.60;;
20814;SDS011;10568;48.176;16.316;2024-02-23T14:25:00;2.37;;;1.50;;
20814;SDS011;10568;48.176;16.316;2024-02-23T14:27:28;2.87;;;1.70;;
20814;SDS011;10568;48.176;16.316;2024-02-23T14:29:58;1.87;;;1.40;;
20814;SDS011;10568;48.176;16.316;2024-02-23T14:32:26;1.73;;;1.40;;
20814;SDS011;10568;48.176;16.316;2024-02-23T14:34:55;3.13;;;1.40;;
20814;SDS011;10568;48.176;16.316;2024-02-23T14:37:24;1.37;;;1.27;;
20814;SDS011;10568;48.176;16.316;2024-02-23T14:39:51;1.50;;;1.33;;